Time;durP1;ratioP1;P1;durP2;ratioP2;P2;SDS_P1;SDS_P2;PMS_P1;PMS_P2;Temp;Humidity;BMP_temperature;BMP_pressure;BME280_temperature;BME280_humidity;BME280_pressure;Samples;Min_cycle;Max_cycle;Signal;HPM_P1;HPM_P2
2023/08/13 00:01:57;;;;;;;8.23;1.65;;;21.90;91.20;;;;;;5056143;28;20059;-80
2023/08/13 00:04:23;;;;;;;8.00;1.90;;;21.90;91.10;;;;;;5053555;28;20033;-80
2023/08/13 00:06:49;;;;;;;6.18;1.63;;;21.80;91.10;;;;;;5055902;28;20029;-79
2023/08/13 00:09:14;;;;;;;4.97;1.10;;;21.80;90.90;;;;;;5037792;28;20210;-79
2023/08/13 00:11:40;;;;;;;6.72;1.50;;;21.80;91.10;;;;;;5054964;28;20086;-80
2023/08/13 00:14:06;;;;;;;5.18;1.60;;;21.70;90.90;;;;;;5053714;28;20033;-80
2023/08/13 00:16:31;;;;;;;5.10;1.38;;;21.70;91.20;;;;;;5053445;28;20029;-80
2023/08/13 00:18:57;;;;;;;4.00;1.48;;;21.70;91.30;;;;;;5054327;28;20041;-80
2023/08/13 00:21:22;;;;;;;5.20;1.13;;;21.70;91.60;;;;;;5053243;28;20033;-80
2023/08/13 00:23:49;;;;;;;4.43;0.90;;;21.70;91.70;;;;;;5054601;28;20365;-80
2023/08/13 00:26:15;;;;;;;6.82;1.13;;;21.70;91.80;;;;;;5053009;28;20029;-79
2023/08/13 00:28:41;;;;;;;7.00;1.30;;;21.70;91.30;;;;;;5054256;28;20378;-80
2023/08/13 00:31:06;;;;;;;5.03;0.93;;;21.80;91.60;;;;;;5054478;28;20029;-80
2023/08/13 00:33:42;;;;;;;6.00;1.50;;;21.80;91.70;;;;;;5054142;28;20044;-80
2023/08/13 00:36:08;;;;;;;5.30;1.42;;;21.80;91.70;;;;;;5054194;28;20033;-80
2023/08/13 00:38:33;;;;;;;4.88;0.93;;;21.80;91.70;;;;;;5054038;28;20493;-79
2023/08/13 00:40:59;;;;;;;3.53;1.08;;;21.80;91.90;;;;;;5054254;28;20033;-79
2023/08/13 00:43:25;;;;;;;6.10;1.23;;;21.90;91.80;;;;;;5052380;28;20476;-79
2023/08/13 00:45:50;;;;;;;4.88;1.33;;;21.80;91.70;;;;;;5054249;28;20421;-80
2023/08/13 00:48:17;;;;;;;4.18;0.90;;;21.80;91.70;;;;;;5053982;28;20436;-80
2023/08/13 00:50:45;;;;;;;6.38;1.40;;;21.80;91.60;;;;;;5052283;28;20033;-81
2023/08/13 00:53:11;;;;;;;5.93;1.42;;;21.80;91.50;;;;;;5052601;28;20031;-81
2023/08/13 00:55:37;;;;;;;5.47;1.25;;;21.70;91.60;;;;;;5054289;28;20368;-81
2023/08/13 00:58:03;;;;;;;5.60;0.82;;;21.70;91.70;;;;;;5052374;28;20437;-80
2023/08/13 01:00:30;;;;;;;5.97;1.10;;;21.70;91.40;;;;;;5053922;28;20346;-80
2023/08/13 01:02:56;;;;;;;5.57;1.02;;;21.60;91.50;;;;;;5053977;28;20021;-81
2023/08/13 01:05:32;;;;;;;7.38;1.30;;;21.60;91.70;;;;;;5053951;28;20087;-81
2023/08/13 01:08:29;;;;;;;4.35;0.85;;;21.60;91.60;;;;;;5053283;28;20044;-81
2023/08/13 01:11:13;;;;;;;7.00;1.27;;;21.60;91.70;;;;;;5052683;28;20032;-81
2023/08/13 01:13:44;;;;;;;3.15;0.90;;;21.60;91.70;;;;;;5053715;28;20048;-81
2023/08/13 01:16:11;;;;;;;5.65;1.20;;;21.50;91.90;;;;;;5052940;28;20029;-80
2023/08/13 01:18:39;;;;;;;5.18;1.10;;;21.50;92.10;;;;;;5052535;28;20045;-80
2023/08/13 01:21:05;;;;;;;4.20;0.82;;;21.50;92.20;;;;;;5054129;28;20112;-81
2023/08/13 01:23:31;;;;;;;6.13;1.20;;;21.50;92.30;;;;;;5053102;28;20127;-82
2023/08/13 01:26:01;;;;;;;4.95;1.08;;;21.50;92.10;;;;;;5053151;28;20535;-81
2023/08/13 01:28:40;;;;;;;5.50;0.98;;;21.50;91.90;;;;;;5053213;28;20381;-81
2023/08/13 01:31:14;;;;;;;4.28;1.10;;;21.50;92.10;;;;;;5053872;28;20374;-81
2023/08/13 01:33:42;;;;;;;6.97;1.17;;;21.50;92.10;;;;;;5052790;28;20025;-81
2023/08/13 01:36:09;;;;;;;6.18;1.33;;;21.40;92.00;;;;;;5053671;28;20021;-81
2023/08/13 01:38:35;;;;;;;3.45;0.90;;;21.40;92.10;;;;;;5053342;28;20033;-82
2023/08/13 01:41:02;;;;;;;5.03;1.00;;;21.40;92.40;;;;;;5053649;28;20036;-81
2023/08/13 01:43:28;;;;;;;3.80;0.95;;;21.40;92.40;;;;;;5053357;28;20060;-80
2023/08/13 01:45:54;;;;;;;4.07;1.25;;;21.50;92.60;;;;;;5057527;28;20045;-89
2023/08/13 01:48:19;;;;;;;6.45;1.50;;;21.50;92.50;;;;;;5059732;28;20021;-88
2023/08/13 01:50:45;;;;;;;4.75;1.13;;;21.50;92.60;;;;;;5061199;28;20055;-92
2023/08/13 01:53:11;;;;;;;2.85;0.95;;;21.50;92.70;;;;;;5058461;28;20342;-89
2023/08/13 01:55:36;;;;;;;6.22;0.90;;;21.50;92.70;;;;;;5061062;28;20036;-89
2023/08/13 01:58:02;;;;;;;5.50;1.45;;;21.50;92.50;;;;;;5058609;28;20470;-89
2023/08/13 02:00:28;;;;;;;6.43;1.20;;;21.50;92.30;;;;;;5056046;28;20458;-90
2023/08/13 02:02:55;;;;;;;7.07;1.13;;;21.40;92.10;;;;;;5054557;28;20029;-90
2023/08/13 02:05:20;;;;;;;5.15;1.10;;;21.40;92.40;;;;;;5055746;28;20060;-90
2023/08/13 02:07:46;;;;;;;4.22;1.13;;;21.40;92.40;;;;;;5055408;28;20037;-91
2023/08/13 02:10:12;;;;;;;3.63;0.93;;;21.40;92.20;;;;;;5056132;28;20097;-90
2023/08/13 02:12:38;;;;;;;5.93;1.55;;;21.30;92.40;;;;;;5054946;28;20025;-90
2023/08/13 02:15:05;;;;;;;4.68;1.35;;;21.30;92.30;;;;;;5055905;28;20044;-91
2023/08/13 02:17:30;;;;;;;10.52;1.92;;;21.30;92.10;;;;;;5055299;28;20021;-90
2023/08/13 02:19:56;;;;;;;3.20;1.17;;;21.20;92.10;;;;;;5055085;28;20043;-90
2023/08/13 02:22:22;;;;;;;6.07;1.40;;;21.10;92.20;;;;;;5057710;28;20029;-88
2023/08/13 02:24:47;;;;;;;6.68;1.17;;;21.00;92.40;;;;;;5058761;28;20074;-89
2023/08/13 02:27:13;;;;;;;7.82;1.80;;;20.90;92.40;;;;;;5059802;28;20033;-89
2023/08/13 02:29:39;;;;;;;7.55;1.45;;;20.90;92.30;;;;;;5058791;28;20029;-90
2023/08/13 02:32:04;;;;;;;6.10;1.38;;;20.80;92.40;;;;;;5062596;28;20450;-91
2023/08/13 02:34:41;;;;;;;4.80;1.20;;;20.70;92.50;;;;;;5062312;28;20032;-91
2023/08/13 02:37:07;;;;;;;12.45;1.52;;;20.60;92.80;;;;;;5065119;28;20021;-91
2023/08/13 02:39:33;;;;;;;5.35;1.10;;;20.60;92.90;;;;;;5061894;28;20045;-91
2023/08/13 02:41:58;;;;;;;10.05;1.50;;;20.60;93.00;;;;;;5064824;28;20064;-91
2023/08/13 02:44:25;;;;;;;4.93;1.20;;;20.50;93.10;;;;;;5061065;28;20550;-91
2023/08/13 02:46:50;;;;;;;6.63;1.08;;;20.50;93.10;;;;;;5063742;28;20021;-91
2023/08/13 02:49:16;;;;;;;5.97;1.40;;;20.50;93.20;;;;;;5063509;28;20150;-90
2023/08/13 02:51:42;;;;;;;4.07;0.85;;;20.40;93.30;;;;;;5059524;28;20053;-91
2023/08/13 02:54:07;;;;;;;6.38;1.45;;;20.40;93.50;;;;;;5066196;28;20033;-91
2023/08/13 02:56:33;;;;;;;6.65;1.08;;;20.40;93.60;;;;;;5062316;28;20033;-91
2023/08/13 02:58:58;;;;;;;4.25;0.93;;;20.40;93.60;;;;;;5058482;28;20040;-91
2023/08/13 03:01:24;;;;;;;5.70;1.10;;;20.30;93.80;;;;;;5069053;28;20108;-90
2023/08/13 03:03:52;;;;;;;4.57;1.20;;;20.30;93.80;;;;;;5064455;28;20048;-90
2023/08/13 03:06:22;;;;;;;5.78;1.20;;;20.40;93.80;;;;;;5066250;28;20106;-90
2023/08/13 03:08:47;;;;;;;6.57;1.17;;;20.40;93.80;;;;;;5064921;28;20029;-90
2023/08/13 03:11:13;;;;;;;6.50;1.25;;;20.40;94.00;;;;;;5069662;28;20033;-90
2023/08/13 03:13:39;;;;;;;3.42;0.80;;;20.40;93.70;;;;;;5072733;28;20029;-90
2023/08/13 03:16:05;;;;;;;5.50;1.08;;;20.40;93.80;;;;;;5059406;28;20120;-88
2023/08/13 03:18:30;;;;;;;6.68;1.13;;;20.40;94.00;;;;;;5056057;28;20040;-88
2023/08/13 03:20:56;;;;;;;6.57;1.20;;;20.50;94.20;;;;;;5055389;28;20029;-88
2023/08/13 03:23:21;;;;;;;4.18;0.70;;;20.60;94.30;;;;;;5056362;28;20120;-88
2023/08/13 03:25:47;;;;;;;5.18;1.00;;;20.60;94.30;;;;;;5056317;28;20104;-88
2023/08/13 03:28:13;;;;;;;2.25;0.57;;;20.70;94.40;;;;;;5054886;28;20049;-87
2023/08/13 03:30:38;;;;;;;3.25;0.70;;;20.70;94.50;;;;;;5056693;28;20036;-88
2023/08/13 03:33:04;;;;;;;4.32;0.90;;;20.80;94.50;;;;;;5055205;28;20029;-88
2023/08/13 03:35:30;;;;;;;8.82;1.30;;;20.80;94.30;;;;;;5056135;28;20413;-88
2023/08/13 03:37:56;;;;;;;3.83;0.98;;;20.70;94.30;;;;;;5056221;28;20035;-88
2023/08/13 03:40:22;;;;;;;3.42;0.82;;;20.80;94.40;;;;;;5056052;28;20086;-88
2023/08/13 03:42:47;;;;;;;9.73;1.63;;;20.80;94.50;;;;;;5056023;28;20126;-87
2023/08/13 03:45:13;;;;;;;4.45;0.90;;;20.80;94.40;;;;;;5055771;28;20033;-87
2023/08/13 03:47:38;;;;;;;3.45;0.82;;;20.80;94.60;;;;;;5055768;28;20025;-87
2023/08/13 03:50:05;;;;;;;4.45;0.80;;;20.80;94.30;;;;;;5055775;28;20029;-88
2023/08/13 03:52:30;;;;;;;5.68;0.85;;;20.90;94.50;;;;;;5056228;28;20362;-87
2023/08/13 03:54:56;;;;;;;5.55;1.13;;;20.90;94.50;;;;;;5055986;28;20033;-88
2023/08/13 03:57:21;;;;;;;6.18;1.10;;;20.90;94.40;;;;;;5055781;28;20037;-88
2023/08/13 03:59:47;;;;;;;2.33;0.60;;;21.00;94.50;;;;;;5055590;28;20033;-88
2023/08/13 04:02:13;;;;;;;3.60;0.60;;;21.00;94.50;;;;;;5055384;28;20035;-88
2023/08/13 04:04:38;;;;;;;4.28;0.80;;;21.00;94.50;;;;;;5055511;28;20033;-88
2023/08/13 04:07:04;;;;;;;4.82;0.68;;;21.10;94.60;;;;;;5055405;28;20480;-88
2023/08/13 04:09:30;;;;;;;4.75;0.90;;;21.00;94.30;;;;;;5055819;28;20052;-88
2023/08/13 04:11:55;;;;;;;7.53;1.10;;;21.10;94.20;;;;;;5055549;28;20061;-88
2023/08/13 04:14:22;;;;;;;4.95;0.80;;;21.00;94.00;;;;;;5055540;28;20381;-87
2023/08/13 04:16:48;;;;;;;3.97;0.80;;;21.00;94.20;;;;;;5055839;28;20025;-89
2023/08/13 04:19:13;;;;;;;3.38;0.60;;;20.90;94.40;;;;;;5053817;28;20044;-88
2023/08/13 04:21:39;;;;;;;5.70;1.10;;;21.00;94.50;;;;;;5054439;28;20378;-87
2023/08/13 04:24:05;;;;;;;4.13;1.00;;;21.00;94.30;;;;;;5055438;28;20462;-86
2023/08/13 04:26:31;;;;;;;4.40;0.80;;;20.90;94.20;;;;;;5055599;28;20040;-90
2023/08/13 04:28:56;;;;;;;4.85;0.85;;;20.90;94.40;;;;;;5054945;28;20033;-89
2023/08/13 04:31:22;;;;;;;3.95;1.08;;;20.90;94.40;;;;;;5056617;28;20036;-89
2023/08/13 04:33:48;;;;;;;4.20;0.80;;;20.90;94.50;;;;;;5056150;28;20033;-89
2023/08/13 04:36:14;;;;;;;4.25;0.82;;;20.90;94.50;;;;;;5056017;28;20036;-90
2023/08/13 04:38:40;;;;;;;5.47;0.95;;;20.90;94.70;;;;;;5055717;28;20044;-89
2023/08/13 04:41:06;;;;;;;4.30;0.88;;;21.00;94.70;;;;;;5055922;28;20040;-89
2023/08/13 04:43:31;;;;;;;4.97;0.88;;;21.00;94.70;;;;;;5055906;28;20053;-89
2023/08/13 04:45:57;;;;;;;5.13;0.77;;;21.00;94.60;;;;;;5054862;28;20118;-90
2023/08/13 04:48:45;;;;;;;5.60;0.90;;;21.10;94.70;;;;;;5055044;28;20117;-89
2023/08/13 04:51:11;;;;;;;3.42;1.00;;;21.10;94.70;;;;;;5054050;28;20469;-89
2023/08/13 04:53:37;;;;;;;5.30;0.70;;;21.20;94.70;;;;;;5055556;28;20124;-89
2023/08/13 04:56:06;;;;;;;3.08;0.57;;;21.20;94.70;;;;;;5055260;28;20049;-89
2023/08/13 04:58:32;;;;;;;9.52;0.82;;;21.20;94.70;;;;;;5055395;28;20040;-89
2023/08/13 05:00:57;;;;;;;3.58;1.05;;;21.20;94.70;;;;;;5056479;28;20381;-90
2023/08/13 05:03:23;;;;;;;5.80;1.20;;;21.30;94.70;;;;;;5057401;28;20088;-88
2023/08/13 05:05:49;;;;;;;2.85;0.40;;;21.30;94.60;;;;;;5093628;28;20036;-88
2023/08/13 05:08:14;;;;;;;3.05;0.70;;;21.30;94.60;;;;;;5056675;28;20025;-89
2023/08/13 05:10:40;;;;;;;3.78;0.85;;;21.40;94.70;;;;;;5055530;28;20489;-89
2023/08/13 05:13:05;;;;;;;4.80;0.77;;;21.40;94.60;;;;;;5054696;28;20100;-89
2023/08/13 05:15:31;;;;;;;2.97;0.73;;;21.40;94.50;;;;;;5055180;28;20108;-88
2023/08/13 05:18:00;;;;;;;5.70;0.80;;;21.30;94.40;;;;;;5054519;28;20033;-90
2023/08/13 05:20:25;;;;;;;5.40;0.93;;;21.30;94.50;;;;;;5055059;28;20484;-89
2023/08/13 05:22:51;;;;;;;5.65;0.77;;;21.30;94.60;;;;;;5053990;28;20033;-89
2023/08/13 05:25:17;;;;;;;3.50;0.82;;;21.30;94.60;;;;;;5054626;28;20075;-89
2023/08/13 05:27:42;;;;;;;2.63;0.70;;;21.30;94.70;;;;;;5055230;28;20040;-90
2023/08/13 05:30:09;;;;;;;4.35;0.80;;;21.30;94.70;;;;;;5070623;28;20389;-91
2023/08/13 05:32:34;;;;;;;2.80;0.55;;;21.30;94.80;;;;;;5054906;28;20036;-91
2023/08/13 05:35:00;;;;;;;7.90;1.30;;;21.30;94.80;;;;;;5054507;28;20354;-91
2023/08/13 05:37:25;;;;;;;4.72;0.80;;;21.30;94.70;;;;;;5054774;28;20032;-91
2023/08/13 05:39:52;;;;;;;8.13;1.38;;;21.20;94.70;;;;;;5060069;28;20040;-90
2023/08/13 05:42:19;;;;;;;4.88;1.00;;;21.20;94.60;;;;;;5058383;28;20021;-90
2023/08/13 05:44:45;;;;;;;7.65;1.30;;;21.20;94.50;;;;;;5061020;28;20029;-89
2023/08/13 05:47:10;;;;;;;6.95;1.27;;;21.10;94.40;;;;;;5058860;28;20033;-90
2023/08/13 05:49:36;;;;;;;8.23;1.30;;;20.90;94.50;;;;;;5060461;28;20037;-90
2023/08/13 05:52:01;;;;;;;8.50;1.10;;;20.80;94.70;;;;;;5060185;28;20545;-91
2023/08/13 05:54:27;;;;;;;5.78;0.73;;;20.70;94.90;;;;;;5058914;28;20342;-91
2023/08/13 05:56:54;;;;;;;5.78;0.70;;;20.60;95.10;;;;;;5066149;28;20029;-89
2023/08/13 05:59:20;;;;;;;4.70;0.90;;;20.60;95.20;;;;;;5070000;28;20033;-89
2023/08/13 06:01:45;;;;;;;3.97;0.70;;;20.70;95.50;;;;;;5069425;28;20029;-89
2023/08/13 06:04:11;;;;;;;7.70;1.40;;;20.70;95.90;;;;;;5071973;28;20071;-90
2023/08/13 06:06:37;;;;;;;6.85;1.05;;;20.80;95.70;;;;;;5070469;28;20029;-90
2023/08/13 06:09:03;;;;;;;7.10;0.82;;;20.80;95.60;;;;;;5067830;28;20060;-92
2023/08/13 06:11:29;;;;;;;6.68;1.10;;;20.80;95.60;;;;;;5061270;28;20040;-90
2023/08/13 06:13:55;;;;;;;6.78;1.40;;;20.80;95.50;;;;;;5059642;28;20025;-91
2023/08/13 06:16:20;;;;;;;9.20;1.20;;;20.80;95.40;;;;;;5062764;28;20036;-90
2023/08/13 06:18:46;;;;;;;7.90;1.33;;;20.90;95.40;;;;;;5060781;28;20083;-90
2023/08/13 06:21:12;;;;;;;6.32;1.05;;;20.80;95.30;;;;;;5041397;28;20568;-90
2023/08/13 06:23:38;;;;;;;6.63;1.30;;;20.80;95.60;;;;;;5058417;28;20060;-90
2023/08/13 06:26:04;;;;;;;7.18;0.93;;;20.90;95.60;;;;;;5058140;28;20120;-91
2023/08/13 06:28:30;;;;;;;6.40;1.10;;;21.00;95.70;;;;;;5059862;28;20037;-91
2023/08/13 06:30:56;;;;;;;6.10;1.20;;;21.00;95.60;;;;;;5061060;28;20226;-91
2023/08/13 06:33:21;;;;;;;7.97;1.38;;;21.00;95.40;;;;;;5060419;28;20059;-90
2023/08/13 06:35:47;;;;;;;5.90;1.10;;;21.00;95.30;;;;;;5058673;28;20033;-91
2023/08/13 06:38:16;;;;;;;2.53;0.75;;;21.00;95.50;;;;;;5058793;28;20045;-91
2023/08/13 06:40:43;;;;;;;8.65;1.20;;;21.10;95.50;;;;;;5061566;28;20025;-90
2023/08/13 06:43:09;;;;;;;7.15;2.03;;;21.20;95.20;;;;;;5062456;28;20053;-92
2023/08/13 06:45:35;;;;;;;5.75;1.38;;;21.20;95.00;;;;;;5062389;28;20493;-91
2023/08/13 06:48:04;;;;;;;8.43;1.70;;;21.00;95.10;;;;;;5056411;28;20040;-88
2023/08/13 06:50:31;;;;;;;8.07;1.55;;;21.00;95.40;;;;;;5056361;28;20029;-88
2023/08/13 06:52:57;;;;;;;7.78;1.25;;;21.10;95.50;;;;;;5056848;28;20022;-88
2023/08/13 06:55:23;;;;;;;8.57;1.88;;;21.10;95.40;;;;;;5056257;28;20060;-89
2023/08/13 06:57:49;;;;;;;10.73;1.65;;;21.20;95.50;;;;;;5055627;28;20091;-88
2023/08/13 07:00:15;;;;;;;9.35;1.52;;;21.20;95.40;;;;;;5056665;28;20057;-88
2023/08/13 07:02:41;;;;;;;8.18;1.52;;;21.20;95.40;;;;;;5055734;28;20390;-90
2023/08/13 07:05:11;;;;;;;9.63;1.60;;;21.30;95.40;;;;;;5056316;28;20021;-88
2023/08/13 07:07:36;;;;;;;13.38;1.60;;;21.30;95.40;;;;;;5054688;28;20028;-88
2023/08/13 07:10:04;;;;;;;9.85;1.55;;;21.30;95.50;;;;;;5056138;28;20098;-87
2023/08/13 07:12:29;;;;;;;9.05;1.50;;;21.30;95.30;;;;;;5055173;28;20029;-87
2023/08/13 07:14:55;;;;;;;5.72;1.10;;;21.30;95.30;;;;;;5055773;28;20033;-87
2023/08/13 07:17:21;;;;;;;8.98;2.13;;;21.30;95.30;;;;;;5055841;28;20481;-87
2023/08/13 07:19:49;;;;;;;6.50;1.02;;;21.40;95.20;;;;;;5055984;28;20045;-86
2023/08/13 07:22:15;;;;;;;8.77;1.50;;;21.50;95.10;;;;;;5055760;28;20025;-87
2023/08/13 07:24:41;;;;;;;8.05;1.80;;;21.40;95.00;;;;;;5054249;28;20033;-86
2023/08/13 07:27:07;;;;;;;6.00;1.02;;;21.40;95.10;;;;;;5054148;28;20025;-87
2023/08/13 07:29:33;;;;;;;7.78;1.35;;;21.50;95.10;;;;;;5055635;28;20474;-86
2023/08/13 07:31:59;;;;;;;5.65;1.30;;;21.60;95.20;;;;;;5054496;28;20044;-87
2023/08/13 07:34:24;;;;;;;9.05;1.55;;;21.70;95.00;;;;;;5054608;28;20040;-88
2023/08/13 07:36:51;;;;;;;7.15;1.75;;;21.80;95.10;;;;;;5056595;28;20025;-87
2023/08/13 07:39:16;;;;;;;11.13;1.65;;;21.70;95.00;;;;;;5055963;28;20094;-87
2023/08/13 07:41:43;;;;;;;6.55;0.90;;;21.60;95.00;;;;;;5056254;28;20037;-86
2023/08/13 07:44:08;;;;;;;8.00;1.42;;;21.60;95.00;;;;;;5054010;28;20397;-86
2023/08/13 07:46:34;;;;;;;7.22;1.40;;;21.60;95.10;;;;;;5055775;28;20021;-87
2023/08/13 07:49:00;;;;;;;5.88;1.42;;;21.60;95.40;;;;;;5054425;28;20467;-88
2023/08/13 07:51:25;;;;;;;4.90;1.30;;;21.60;95.30;;;;;;5055383;28;20032;-87
2023/08/13 07:53:51;;;;;;;6.80;1.30;;;21.70;95.40;;;;;;5054130;28;20381;-86
2023/08/13 07:56:17;;;;;;;6.10;1.50;;;21.70;95.60;;;;;;5055082;28;20033;-86
2023/08/13 07:58:43;;;;;;;10.60;1.50;;;21.70;95.20;;;;;;5055258;28;20355;-87
2023/08/13 08:01:08;;;;;;;10.60;1.17;;;21.80;95.30;;;;;;5053804;28;20029;-86
2023/08/13 08:03:34;;;;;;;7.93;1.20;;;22.00;95.30;;;;;;5054929;28;20037;-87
2023/08/13 08:05:59;;;;;;;8.40;1.10;;;22.10;95.20;;;;;;5053610;28;20029;-87
2023/08/13 08:08:25;;;;;;;7.05;0.93;;;22.10;94.90;;;;;;5054872;28;20037;-87
2023/08/13 08:10:51;;;;;;;6.43;1.08;;;22.20;95.00;;;;;;5053704;28;20033;-87
2023/08/13 08:13:16;;;;;;;8.63;1.30;;;22.30;95.00;;;;;;5055043;28;20032;-87
2023/08/13 08:15:42;;;;;;;9.45;1.52;;;22.40;94.90;;;;;;5054413;28;20041;-87
2023/08/13 08:18:08;;;;;;;7.18;1.08;;;22.40;95.00;;;;;;5054106;28;20025;-87
2023/08/13 08:20:34;;;;;;;10.60;1.42;;;22.50;94.80;;;;;;5055109;28;20100;-88
2023/08/13 08:22:59;;;;;;;7.78;2.13;;;22.40;94.30;;;;;;5054985;28;20025;-86
2023/08/13 08:25:25;;;;;;;6.30;1.05;;;22.40;94.70;;;;;;5054779;28;20473;-86
2023/08/13 08:27:51;;;;;;;6.88;1.48;;;22.40;94.50;;;;;;5053208;28;20064;-86
2023/08/13 08:30:16;;;;;;;7.32;1.33;;;22.40;94.60;;;;;;5053744;28;20033;-86
2023/08/13 08:32:42;;;;;;;7.78;1.60;;;22.30;94.70;;;;;;5054314;28;20086;-86
2023/08/13 08:35:08;;;;;;;10.18;1.83;;;22.20;94.70;;;;;;5054182;28;20063;-86
2023/08/13 08:37:34;;;;;;;4.95;1.02;;;22.20;94.80;;;;;;5054438;28;20078;-87
2023/08/13 08:40:00;;;;;;;7.28;1.10;;;22.20;94.80;;;;;;5054472;28;20037;-87
2023/08/13 08:42:26;;;;;;;8.43;1.25;;;22.20;95.10;;;;;;5053180;28;20483;-86
2023/08/13 08:44:52;;;;;;;9.95;1.42;;;22.20;95.10;;;;;;5054279;28;20029;-86
2023/08/13 08:47:21;;;;;;;6.55;1.20;;;22.30;95.40;;;;;;5053989;28;20025;-86
2023/08/13 08:49:49;;;;;;;11.15;1.77;;;22.30;95.10;;;;;;5054811;28;20039;-86
2023/08/13 08:52:16;;;;;;;9.50;1.73;;;22.50;94.90;;;;;;5053811;28;20032;-89
2023/08/13 08:54:43;;;;;;;9.48;1.20;;;22.60;94.90;;;;;;5054102;28;20025;-86
2023/08/13 08:57:09;;;;;;;7.90;1.20;;;22.70;94.60;;;;;;5054707;28;20035;-86
2023/08/13 08:59:37;;;;;;;8.15;1.27;;;22.70;94.70;;;;;;5053493;28;20116;-86
2023/08/13 09:02:03;;;;;;;9.50;1.40;;;22.90;94.50;;;;;;5052867;28;20032;-86
2023/08/13 09:04:29;;;;;;;6.40;1.75;;;22.90;94.60;;;;;;5053563;28;20428;-87
2023/08/13 09:07:04;;;;;;;4.72;0.90;;;23.00;94.70;;;;;;5053954;28;20108;-87
2023/08/13 09:09:31;;;;;;;6.65;1.30;;;23.10;94.00;;;;;;5053309;28;20063;-86
2023/08/13 09:11:57;;;;;;;10.35;1.17;;;23.10;93.70;;;;;;5052217;28;20473;-87
2023/08/13 09:14:25;;;;;;;5.85;1.10;;;23.20;93.70;;;;;;5053025;28;20067;-87
2023/08/13 09:16:53;;;;;;;7.35;1.55;;;23.10;93.60;;;;;;5054062;28;20021;-87
2023/08/13 09:19:21;;;;;;;8.27;1.45;;;23.10;93.30;;;;;;5052469;28;20029;-86
2023/08/13 09:21:49;;;;;;;6.57;1.10;;;23.10;93.40;;;;;;5053846;28;20065;-87
2023/08/13 09:24:14;;;;;;;9.48;1.63;;;23.00;93.90;;;;;;5053781;28;20029;-87
2023/08/13 09:26:40;;;;;;;5.82;1.10;;;23.00;94.30;;;;;;5054461;28;20036;-87
2023/08/13 09:29:09;;;;;;;7.20;1.05;;;23.00;94.10;;;;;;5053596;28;20039;-88
2023/08/13 09:31:36;;;;;;;9.07;1.00;;;23.00;93.80;;;;;;5057323;28;20029;-86
2023/08/13 09:34:02;;;;;;;6.13;1.50;;;23.00;93.80;;;;;;5058185;28;20024;-87
2023/08/13 09:36:29;;;;;;;6.90;1.45;;;23.00;93.60;;;;;;5057722;28;20025;-87
2023/08/13 09:38:55;;;;;;;7.28;1.00;;;23.10;93.40;;;;;;5057893;28;20075;-86
2023/08/13 09:41:21;;;;;;;7.38;1.52;;;23.00;92.90;;;;;;5057755;28;20029;-87
2023/08/13 09:43:48;;;;;;;10.02;1.50;;;23.00;93.10;;;;;;5057746;28;20040;-87
2023/08/13 09:46:21;;;;;;;5.82;1.05;;;23.00;93.90;;;;;;5057317;28;20037;-87
2023/08/13 09:48:49;;;;;;;8.60;1.40;;;23.00;94.00;;;;;;5058046;28;20025;-84
2023/08/13 09:51:18;;;;;;;7.68;1.08;;;23.00;94.00;;;;;;5057193;28;20120;-86
2023/08/13 09:53:52;;;;;;;8.65;1.58;;;23.10;93.60;;;;;;5057507;28;20025;-87
2023/08/13 09:56:20;;;;;;;6.82;0.90;;;23.10;93.00;;;;;;5057930;28;20036;-85
2023/08/13 09:58:46;;;;;;;10.77;2.00;;;23.10;92.70;;;;;;5058388;28;20124;-86
2023/08/13 10:01:13;;;;;;;9.48;1.60;;;23.10;92.80;;;;;;5058039;28;20350;-87
2023/08/13 10:03:40;;;;;;;9.00;1.50;;;23.10;92.90;;;;;;5058189;28;20108;-86
2023/08/13 10:06:06;;;;;;;7.55;1.17;;;23.10;92.70;;;;;;5058755;28;20083;-87
2023/08/13 10:08:32;;;;;;;9.70;1.20;;;23.00;92.40;;;;;;5058136;28;20041;-87
2023/08/13 10:10:59;;;;;;;6.38;1.10;;;23.00;92.50;;;;;;5057053;28;20512;-87
2023/08/13 10:13:25;;;;;;;6.65;0.95;;;23.00;92.60;;;;;;5056417;28;20029;-85
2023/08/13 10:15:51;;;;;;;6.30;1.05;;;23.00;92.70;;;;;;5057348;28;20025;-86
2023/08/13 10:18:17;;;;;;;7.40;1.15;;;23.00;92.20;;;;;;5039698;28;20389;-85
2023/08/13 10:20:46;;;;;;;7.03;1.05;;;23.00;92.40;;;;;;5057404;28;20108;-86
2023/08/13 10:23:12;;;;;;;5.18;0.82;;;23.10;92.20;;;;;;5056142;28;20438;-88
2023/08/13 10:25:39;;;;;;;5.20;0.68;;;23.10;92.30;;;;;;5057013;28;20029;-87
2023/08/13 10:28:26;;;;;;;8.00;1.55;;;23.20;92.80;;;;;;5056682;28;20025;-86
2023/08/13 10:31:27;;;;;;;8.40;0.90;;;23.40;92.40;;;;;;5056806;28;20025;-87
2023/08/13 10:34:12;;;;;;;5.75;1.02;;;23.50;91.90;;;;;;5056775;28;20028;-86
2023/08/13 10:36:55;;;;;;;8.57;1.17;;;23.60;91.60;;;;;;5056947;28;20032;-88
2023/08/13 10:39:37;;;;;;;9.57;1.17;;;23.70;91.70;;;;;;5055335;28;20385;-87
2023/08/13 10:42:04;;;;;;;6.05;0.88;;;23.80;91.30;;;;;;5056578;28;20025;-86
2023/08/13 10:44:40;;;;;;;5.22;0.80;;;23.80;90.60;;;;;;5055241;28;20072;-86
2023/08/13 10:47:06;;;;;;;8.18;1.10;;;23.80;91.10;;;;;;5056577;28;20025;-88
2023/08/13 10:49:32;;;;;;;5.05;0.98;;;23.70;91.10;;;;;;5056507;28;20040;-87
2023/08/13 10:52:01;;;;;;;8.35;1.10;;;23.70;91.10;;;;;;5056090;28;20021;-87
2023/08/13 10:54:27;;;;;;;5.72;0.90;;;23.60;91.20;;;;;;5056195;28;20496;-89
2023/08/13 10:56:57;;;;;;;6.65;1.20;;;23.60;91.30;;;;;;5055592;28;20032;-86
2023/08/13 10:59:33;;;;;;;6.05;1.02;;;23.60;91.50;;;;;;5056016;28;20120;-87
2023/08/13 11:02:11;;;;;;;7.00;1.15;;;23.50;91.40;;;;;;5055157;28;20025;-86
2023/08/13 11:04:38;;;;;;;6.25;0.95;;;23.60;91.70;;;;;;5055946;28;20462;-87
2023/08/13 11:07:04;;;;;;;6.43;0.90;;;23.50;91.30;;;;;;5055754;28;20029;-87
2023/08/13 11:09:30;;;;;;;4.88;1.00;;;23.50;91.10;;;;;;5056163;28;20155;-85
2023/08/13 11:11:56;;;;;;;3.88;0.70;;;23.50;91.50;;;;;;5055590;28;20025;-87
2023/08/13 11:14:22;;;;;;;6.93;1.65;;;23.40;91.50;;;;;;5055967;28;20480;-86
2023/08/13 11:16:48;;;;;;;7.38;1.20;;;23.40;91.90;;;;;;5055860;28;20032;-86
2023/08/13 11:19:14;;;;;;;7.05;1.17;;;23.30;92.00;;;;;;5055853;28;20120;-86
2023/08/13 11:21:40;;;;;;;8.85;1.30;;;23.40;91.90;;;;;;5055775;28;20033;-85
2023/08/13 11:24:09;;;;;;;7.15;1.02;;;23.40;91.70;;;;;;5070885;28;20029;-87
2023/08/13 11:26:35;;;;;;;6.95;0.98;;;23.50;91.80;;;;;;5055817;28;20052;-87
2023/08/13 11:29:01;;;;;;;4.95;0.88;;;23.70;92.90;;;;;;5054340;28;20473;-85
2023/08/13 11:31:26;;;;;;;7.25;1.02;;;23.80;92.10;;;;;;5054612;28;20033;-88
2023/08/13 11:33:52;;;;;;;6.45;0.90;;;23.90;92.10;;;;;;5055695;28;20039;-87
2023/08/13 11:36:19;;;;;;;6.38;0.90;;;24.10;92.20;;;;;;5055820;28;20069;-86
2023/08/13 11:38:45;;;;;;;4.97;1.00;;;24.20;91.90;;;;;;5054014;28;20041;-87
2023/08/13 11:41:11;;;;;;;8.38;1.35;;;24.20;90.70;;;;;;5054273;28;20033;-86
2023/08/13 11:43:37;;;;;;;8.90;1.00;;;24.20;90.70;;;;;;5053923;28;20083;-84
2023/08/13 11:46:03;;;;;;;5.32;1.00;;;24.10;90.30;;;;;;5055380;28;20036;-85
2023/08/13 11:48:31;;;;;;;4.47;0.80;;;24.10;90.70;;;;;;5055511;28;20111;-87
2023/08/13 11:51:11;;;;;;;4.38;0.80;;;24.10;90.70;;;;;;5055321;28;20037;-87
2023/08/13 11:53:47;;;;;;;6.47;1.13;;;24.10;90.50;;;;;;5054376;28;20029;-87
2023/08/13 11:56:14;;;;;;;7.88;1.00;;;24.20;90.80;;;;;;5055277;28;20039;-86
2023/08/13 11:58:40;;;;;;;6.88;1.10;;;24.40;90.40;;;;;;5054198;28;20033;-87
2023/08/13 12:01:06;;;;;;;7.13;1.20;;;24.50;89.90;;;;;;5053949;28;20158;-87
2023/08/13 12:03:36;;;;;;;5.35;0.90;;;24.60;90.10;;;;;;5055010;28;20063;-87
2023/08/13 12:06:01;;;;;;;5.95;0.90;;;24.60;90.00;;;;;;5054929;28;20032;-87
2023/08/13 12:08:28;;;;;;;6.97;1.00;;;24.60;90.10;;;;;;5054775;28;20039;-86
2023/08/13 12:10:55;;;;;;;5.72;1.00;;;24.60;89.90;;;;;;5054717;28;20025;-85
2023/08/13 12:13:21;;;;;;;5.65;1.08;;;24.60;89.80;;;;;;5053486;28;20071;-88
2023/08/13 12:15:46;;;;;;;6.03;1.00;;;24.60;90.20;;;;;;5054863;28;20437;-88
2023/08/13 12:18:12;;;;;;;7.03;1.00;;;24.60;89.50;;;;;;5053596;28;20428;-86
2023/08/13 12:20:38;;;;;;;6.22;1.02;;;24.60;90.10;;;;;;5054639;28;20033;-87
2023/08/13 12:23:03;;;;;;;6.15;1.10;;;24.60;87.60;;;;;;5053764;28;20036;-87
2023/08/13 12:25:29;;;;;;;5.15;0.60;;;24.50;86.70;;;;;;5054114;28;20032;-77
2023/08/13 12:27:55;;;;;;;9.52;1.30;;;24.40;87.20;;;;;;5054566;28;20029;-87
2023/08/13 12:30:21;;;;;;;6.68;1.00;;;24.40;87.30;;;;;;5054490;28;20033;-88
2023/08/13 12:32:47;;;;;;;5.65;1.42;;;24.50;86.50;;;;;;5053141;28;20040;-86
2023/08/13 12:35:13;;;;;;;5.53;1.10;;;24.50;87.90;;;;;;5054024;28;20044;-86
2023/08/13 12:37:38;;;;;;;9.40;1.67;;;24.50;88.00;;;;;;5054309;28;20074;-87
2023/08/13 12:40:09;;;;;;;6.03;0.93;;;24.40;88.20;;;;;;5052769;28;20100;-87
2023/08/13 12:42:34;;;;;;;5.55;1.13;;;24.40;87.70;;;;;;5053745;28;20483;-86
2023/08/13 12:45:00;;;;;;;10.68;1.63;;;24.30;87.50;;;;;;5053774;28;20056;-87